Time;durP1;ratioP1;P1;durP2;ratioP2;P2;SDS_P1;SDS_P2;PMS_P1;PMS_P2;Temp;Humidity;BMP_temperature;BMP_pressure;BME280_temperature;BME280_humidity;BME280_pressure;Samples;Min_cycle;Max_cycle;Signal;HPM_P1;HPM_P2
2023/03/31 00:01:51;;;;;;;;;;;;;;;13.67;95.31;99041.53;7357644;19;19946;-61
2023/03/31 00:04:22;;;;;;;;;;;;;;;13.67;92.36;99032.78;7361281;19;19915;-59
2023/03/31 00:06:52;;;;;;;;;;;;;;;13.66;93.78;99037.25;7360614;19;19991;-64
2023/03/31 00:09:20;;;;;;;;;;;;;;;13.64;93.66;99022.66;7361446;19;19923;-62
2023/03/31 00:11:49;;;;;;;;;;;;;;;13.62;92.30;99008.84;7359160;19;19927;-62
2023/03/31 00:14:17;;;;;;;;;;;;;;;13.63;92.70;98999.88;7362748;19;19915;-61
2023/03/31 00:16:44;;;;;;;;;;;;;;;13.64;92.56;98990.94;7356061;19;19910;-61
2023/03/31 00:19:16;;;;;;;;;;;;;;;13.64;92.39;98981.19;7359325;19;20823;-63
2023/03/31 00:21:44;;;;;;;;;;;;;;;13.62;92.40;98987.69;7361250;19;20314;-62
2023/03/31 00:24:11;;;;;;;;;;;;;;;13.62;92.95;98975.28;7359810;19;19929;-61
2023/03/31 00:26:38;;;;;;;;;;;;;;;13.61;92.57;98960.47;7361044;19;20522;-61
2023/03/31 00:29:07;;;;;;;;;;;;;;;13.60;92.42;98965.97;7360983;19;19941;-62
2023/03/31 00:31:34;;;;;;;;;;;;;;;13.61;92.61;98955.16;7356647;19;19918;-61
2023/03/31 00:34:01;;;;;;;;;;;;;;;13.61;92.35;98944.59;7357967;19;19926;-61
2023/03/31 00:36:28;;;;;;;;;;;;;;;13.57;91.54;98946.06;7357766;19;19915;-61
2023/03/31 00:38:58;;;;;;;;;;;;;;;13.56;91.69;98939.16;7358983;19;20436;-66
2023/03/31 00:41:26;;;;;;;;;;;;;;;13.52;92.01;98931.88;7358951;19;20023;-60
2023/03/31 00:44:02;;;;;;;;;;;;;;;13.52;93.14;98927.41;7359001;19;20740;-63
2023/03/31 00:46:31;;;;;;;;;;;;;;;13.47;93.01;98910.59;7357763;19;19919;-61
2023/03/31 00:48:58;;;;;;;;;;;;;;;13.42;94.13;98903.34;7358743;19;19919;-63
2023/03/31 00:51:27;;;;;;;;;;;;;;;13.39;94.26;98881.84;7356852;19;19919;-61
2023/03/31 00:53:58;;;;;;;;;;;;;;;13.34;94.72;98871.94;7357525;19;19945;-59
2023/03/31 00:56:31;;;;;;;;;;;;;;;13.34;95.35;98857.91;7356433;19;20472;-60
2023/03/31 00:59:01;;;;;;;;;;;;;;;13.31;94.45;98853.09;7363770;19;19938;-62
2023/03/31 01:01:29;;;;;;;;;;;;;;;13.29;94.25;98848.00;7356206;19;19914;-64
2023/03/31 01:03:58;;;;;;;;;;;;;;;13.26;94.29;98837.88;7361171;19;19951;-61
2023/03/31 01:06:25;;;;;;;;;;;;;;;13.18;94.42;98831.06;7361511;19;19927;-59
2023/03/31 01:08:52;;;;;;;;;;;;;;;13.16;94.97;98819.06;7360662;19;19927;-62
2023/03/31 01:11:19;;;;;;;;;;;;;;;13.17;95.22;98810.13;7357463;19;20355;-61
2023/03/31 01:13:49;;;;;;;;;;;;;;;13.17;96.22;98803.03;7358325;19;19919;-62
2023/03/31 01:16:17;;;;;;;;;;;;;;;13.18;96.66;98790.63;7354475;19;19926;-61
2023/03/31 01:18:48;;;;;;;;;;;;;;;13.15;96.88;98778.69;7357887;19;20455;-60
2023/03/31 01:21:29;;;;;;;;;;;;;;;13.10;96.79;98767.94;7358379;19;20378;-60
2023/03/31 01:24:06;;;;;;;;;;;;;;;13.09;97.23;98761.06;7357634;19;19918;-60
2023/03/31 01:26:43;;;;;;;;;;;;;;;13.08;97.62;98742.78;7359395;19;19961;-61
2023/03/31 01:29:20;;;;;;;;;;;;;;;13.09;98.21;98742.56;7353153;19;19921;-63
2023/03/31 01:31:56;;;;;;;;;;;;;;;13.07;98.08;98728.78;7354429;19;19935;-60
2023/03/31 01:34:32;;;;;;;;;;;;;;;13.06;98.55;98719.22;7357165;19;19923;-60
2023/03/31 01:37:14;;;;;;;;;;;;;;;13.08;98.83;98716.38;7358310;19;20533;-63
2023/03/31 01:39:51;;;;;;;;;;;;;;;13.11;99.24;98700.91;7365146;19;19926;-62
2023/03/31 01:42:29;;;;;;;;;;;;;;;13.12;99.82;98699.91;7360733;19;20466;-62
2023/03/31 01:45:01;;;;;;;;;;;;;;;13.11;99.85;98685.06;7366655;19;20699;-63
2023/03/31 01:47:33;;;;;;;;;;;;;;;13.14;100.00;98682.00;7359366;19;19947;-61
2023/03/31 01:50:04;;;;;;;;;;;;;;;13.16;100.00;98672.00;7365585;19;20559;-63
2023/03/31 01:52:38;;;;;;;;;;;;;;;13.17;100.00;98667.53;7363525;19;19919;-60
2023/03/31 01:55:10;;;;;;;;;;;;;;;13.19;100.00;98660.22;7362033;19;19961;-62
2023/03/31 01:57:40;;;;;;;;;;;;;;;13.18;100.00;98645.38;7365160;19;19923;-62
2023/03/31 02:00:12;;;;;;;;;;;;;;;13.15;99.89;98638.75;7364996;19;19926;-61
2023/03/31 02:02:45;;;;;;;;;;;;;;;13.15;100.00;98630.81;7360171;19;19990;-63
2023/03/31 02:05:15;;;;;;;;;;;;;;;13.20;99.93;98624.88;7366083;19;19924;-63
2023/03/31 02:07:46;;;;;;;;;;;;;;;13.22;99.81;98615.66;7361779;19;19948;-61
2023/03/31 02:10:15;;;;;;;;;;;;;;;13.27;100.00;98607.06;7364345;19;19918;-61
2023/03/31 02:12:44;;;;;;;;;;;;;;;13.28;100.00;98598.13;7363543;19;19921;-63
2023/03/31 02:15:13;;;;;;;;;;;;;;;13.33;100.00;98592.16;7361706;19;19926;-62
2023/03/31 02:17:44;;;;;;;;;;;;;;;13.36;100.00;98589.09;7363545;19;19919;-62
2023/03/31 02:20:14;;;;;;;;;;;;;;;13.39;100.00;98581.50;7362129;19;19923;-64
2023/03/31 02:22:42;;;;;;;;;;;;;;;13.37;99.59;98575.63;7361275;19;19923;-60
2023/03/31 02:25:11;;;;;;;;;;;;;;;13.40;99.82;98569.91;7365471;19;19926;-60
2023/03/31 02:27:41;;;;;;;;;;;;;;;13.38;99.05;98563.22;7363594;19;19915;-63
2023/03/31 02:30:08;;;;;;;;;;;;;;;13.32;98.80;98543.81;7363642;19;19911;-61
2023/03/31 02:32:35;;;;;;;;;;;;;;;13.35;99.07;98550.50;7360678;19;19959;-62
2023/03/31 02:35:03;;;;;;;;;;;;;;;13.36;98.87;98539.69;7363416;19;19923;-60
2023/03/31 02:37:30;;;;;;;;;;;;;;;13.37;98.47;98532.56;7364196;19;19923;-62
2023/03/31 02:39:59;;;;;;;;;;;;;;;13.37;98.28;98533.38;7364330;19;20475;-62
2023/03/31 02:42:26;;;;;;;;;;;;;;;13.41;98.86;98525.81;7360238;19;19922;-63
2023/03/31 02:44:53;;;;;;;;;;;;;;;13.41;98.75;98510.75;7363569;19;19918;-63
2023/03/31 02:47:20;;;;;;;;;;;;;;;13.46;98.75;98502.16;7359779;19;19922;-63
2023/03/31 02:49:50;;;;;;;;;;;;;;;13.43;98.33;98484.91;7359955;19;19918;-64
2023/03/31 02:52:18;;;;;;;;;;;;;;;13.44;99.04;98483.88;7361002;19;19922;-63
2023/03/31 02:54:55;;;;;;;;;;;;;;;13.44;98.85;98475.97;7360325;19;20459;-63
2023/03/31 02:57:32;;;;;;;;;;;;;;;13.43;98.38;98463.78;7361568;19;20479;-62
2023/03/31 03:00:09;;;;;;;;;;;;;;;13.45;98.52;98460.91;7360271;19;20326;-61
2023/03/31 03:02:50;;;;;;;;;;;;;;;13.46;98.68;98451.97;7361002;19;19922;-61
2023/03/31 03:05:21;;;;;;;;;;;;;;;13.46;98.67;98449.31;7361953;19;19919;-62
2023/03/31 03:07:58;;;;;;;;;;;;;;;13.42;98.53;98450.78;7360125;19;20272;-64
2023/03/31 03:10:35;;;;;;;;;;;;;;;13.41;98.11;98428.84;7363573;19;20557;-63
2023/03/31 03:13:03;;;;;;;;;;;;;;;13.41;98.25;98426.22;7362005;19;20132;-63
2023/03/31 03:15:33;;;;;;;;;;;;;;;13.36;97.96;98420.03;7363088;19;19922;-64
2023/03/31 03:18:01;;;;;;;;;;;;;;;13.37;97.76;98408.41;7361809;19;19937;-62
2023/03/31 03:20:28;;;;;;;;;;;;;;;13.32;97.17;98403.81;7363868;19;19911;-64
2023/03/31 03:22:55;;;;;;;;;;;;;;;13.30;96.41;98390.06;7363240;19;19940;-63
2023/03/31 03:25:23;;;;;;;;;;;;;;;13.25;96.10;98384.66;7361947;19;19919;-63
2023/03/31 03:27:51;;;;;;;;;;;;;;;13.25;96.76;98374.91;7362411;19;19922;-59
2023/03/31 03:30:18;;;;;;;;;;;;;;;13.25;96.94;98371.47;7359516;19;19918;-61
2023/03/31 03:32:46;;;;;;;;;;;;;;;13.27;97.46;98366.75;7356484;19;20003;-63
2023/03/31 03:35:13;;;;;;;;;;;;;;;13.34;98.31;98356.06;7362972;19;21049;-62
2023/03/31 03:37:39;;;;;;;;;;;;;;;13.25;96.74;98353.78;7364151;19;19919;-65
2023/03/31 03:40:07;;;;;;;;;;;;;;;13.27;96.51;98362.25;7363097;19;20256;-61
2023/03/31 03:42:34;;;;;;;;;;;;;;;13.28;97.02;98340.09;7364530;19;20217;-61
2023/03/31 03:45:01;;;;;;;;;;;;;;;13.31;97.15;98338.06;7364396;19;19923;-59
2023/03/31 03:47:28;;;;;;;;;;;;;;;13.26;96.68;98336.88;7356235;19;19930;-61
2023/03/31 03:49:55;;;;;;;;;;;;;;;13.27;96.60;98332.41;7361841;19;20448;-63
2023/03/31 03:52:22;;;;;;;;;;;;;;;13.24;96.33;98325.78;7358819;19;19976;-63
2023/03/31 03:54:49;;;;;;;;;;;;;;;13.21;96.38;98315.66;7359190;19;19927;-63
2023/03/31 03:57:16;;;;;;;;;;;;;;;13.21;96.06;98314.84;7361297;19;21054;-62
2023/03/31 03:59:43;;;;;;;;;;;;;;;13.21;96.06;98302.44;7360225;19;20671;-62
2023/03/31 04:02:10;;;;;;;;;;;;;;;13.20;96.39;98298.22;7356630;19;19915;-62
2023/03/31 04:04:37;;;;;;;;;;;;;;;13.19;96.34;98291.34;7360578;19;19932;-63
2023/03/31 04:07:04;;;;;;;;;;;;;;;13.18;96.45;98286.28;7358625;19;19915;-63
2023/03/31 04:09:31;;;;;;;;;;;;;;;13.18;96.88;98288.91;7358079;19;19915;-63
2023/03/31 04:11:58;;;;;;;;;;;;;;;13.18;97.24;98273.06;7360586;19;19935;-61
2023/03/31 04:14:25;;;;;;;;;;;;;;;13.21;97.59;98277.88;7361398;19;19923;-63
2023/03/31 04:16:55;;;;;;;;;;;;;;;13.19;97.33;98269.41;7357865;19;20444;-63
2023/03/31 04:19:24;;;;;;;;;;;;;;;13.18;96.93;98267.78;7359766;19;20316;-65
2023/03/31 04:22:01;;;;;;;;;;;;;;;13.18;97.06;98259.88;7360603;19;19919;-63
2023/03/31 04:24:31;;;;;;;;;;;;;;;13.17;97.09;98243.22;7360147;19;19937;-63
2023/03/31 04:26:59;;;;;;;;;;;;;;;13.14;96.45;98235.78;7351509;19;19923;-64
2023/03/31 04:29:26;;;;;;;;;;;;;;;13.14;96.85;98219.13;7362177;19;19927;-64
2023/03/31 04:31:57;;;;;;;;;;;;;;;13.15;97.23;98224.19;7356563;19;19919;-62
2023/03/31 04:34:33;;;;;;;;;;;;;;;13.14;96.59;98213.84;7360029;19;20011;-63
2023/03/31 04:37:01;;;;;;;;;;;;;;;13.14;96.29;98219.94;7359028;19;19918;-63
2023/03/31 04:39:30;;;;;;;;;;;;;;;13.11;96.14;98201.06;7360930;19;21203;-63
2023/03/31 04:41:57;;;;;;;;;;;;;;;13.10;96.08;98202.94;7356904;19;19953;-62
2023/03/31 04:44:24;;;;;;;;;;;;;;;13.11;96.11;98203.72;7363555;19;19933;-62
2023/03/31 04:46:52;;;;;;;;;;;;;;;13.12;96.23;98194.78;7356157;19;20234;-63
2023/03/31 04:49:18;;;;;;;;;;;;;;;13.11;95.91;98193.16;7359421;19;19919;-62
2023/03/31 04:51:46;;;;;;;;;;;;;;;13.10;95.57;98192.38;7357582;19;20417;-65
2023/03/31 04:54:12;;;;;;;;;;;;;;;13.10;95.55;98178.38;7359313;19;19919;-62
2023/03/31 04:56:39;;;;;;;;;;;;;;;13.07;95.27;98179.63;7357388;19;19929;-63
2023/03/31 04:59:07;;;;;;;;;;;;;;;13.05;95.65;98176.44;7362618;19;19963;-60
2023/03/31 05:01:37;;;;;;;;;;;;;;;13.06;96.33;98170.09;7356647;19;19918;-60
2023/03/31 05:04:04;;;;;;;;;;;;;;;13.04;96.75;98164.28;7358045;19;19933;-60
2023/03/31 05:06:31;;;;;;;;;;;;;;;13.03;96.51;98159.22;7359254;19;20640;-62
2023/03/31 05:08:58;;;;;;;;;;;;;;;13.02;96.21;98158.41;7358804;19;20391;-63
2023/03/31 05:11:26;;;;;;;;;;;;;;;12.99;96.34;98148.34;7357771;19;19915;-63
2023/03/31 05:13:53;;;;;;;;;;;;;;;12.98;95.76;98144.09;7358728;19;20238;-65
2023/03/31 05:16:20;;;;;;;;;;;;;;;12.99;96.04;98139.59;7357901;19;19914;-62
2023/03/31 05:18:47;;;;;;;;;;;;;;;12.96;96.18;98137.41;7358678;19;20321;-63
2023/03/31 05:21:16;;;;;;;;;;;;;;;12.96;96.18;98140.06;7361259;19;20510;-62
2023/03/31 05:23:43;;;;;;;;;;;;;;;12.96;96.62;98132.94;7358419;19;20234;-62
2023/03/31 05:26:10;;;;;;;;;;;;;;;12.96;96.90;98124.22;7358716;19;20472;-64
2023/03/31 05:28:37;;;;;;;;;;;;;;;12.98;97.08;98125.59;7359175;19;20346;-62
2023/03/31 05:31:05;;;;;;;;;;;;;;;12.99;97.13;98114.03;7360359;19;20230;-62
2023/03/31 05:33:33;;;;;;;;;;;;;;;12.99;97.18;98114.03;7355067;19;19939;-65
2023/03/31 05:36:00;;;;;;;;;;;;;;;13.01;97.05;98121.69;7356864;19;19919;-63
2023/03/31 05:38:30;;;;;;;;;;;;;;;13.01;96.86;98105.84;7359066;19;19949;-62
2023/03/31 05:40:57;;;;;;;;;;;;;;;12.99;96.22;98100.03;7358437;19;19937;-61
2023/03/31 05:43:24;;;;;;;;;;;;;;;12.98;96.30;98095.78;7359210;19;20411;-63
2023/03/31 05:45:51;;;;;;;;;;;;;;;12.99;96.49;98090.25;7355023;19;19919;-63
2023/03/31 05:48:18;;;;;;;;;;;;;;;13.01;96.73;98087.38;7356596;19;19923;-64
2023/03/31 05:50:45;;;;;;;;;;;;;;;13.01;96.70;98092.66;7359888;19;19922;-63
2023/03/31 05:53:12;;;;;;;;;;;;;;;13.01;96.43;98076.81;7358434;19;19928;-63
2023/03/31 05:55:39;;;;;;;;;;;;;;;13.00;96.30;98073.41;7357492;19;20164;-63
2023/03/31 05:58:07;;;;;;;;;;;;;;;13.00;96.82;98073.41;7356379;19;19914;-63
2023/03/31 06:00:35;;;;;;;;;;;;;;;13.02;97.47;98059.94;7358800;19;19915;-61
2023/03/31 06:03:02;;;;;;;;;;;;;;;13.02;97.71;98058.09;7352670;19;19930;-61
2023/03/31 06:05:31;;;;;;;;;;;;;;;13.04;97.83;98055.22;7356144;19;19984;-62
2023/03/31 06:07:58;;;;;;;;;;;;;;;13.03;97.66;98056.28;7357305;19;20551;-62
2023/03/31 06:10:24;;;;;;;;;;;;;;;13.05;97.81;98055.00;7357052;19;19938;-62
2023/03/31 06:12:51;;;;;;;;;;;;;;;13.03;97.72;98051.00;7357172;19;20459;-62
2023/03/31 06:15:18;;;;;;;;;;;;;;;13.00;97.27;98049.63;7355705;19;20277;-61
2023/03/31 06:17:45;;;;;;;;;;;;;;;13.00;97.61;98057.56;7352026;19;19933;-62
2023/03/31 06:20:12;;;;;;;;;;;;;;;12.97;97.86;98051.94;7355412;19;20363;-63
2023/03/31 06:22:53;;;;;;;;;;;;;;;13.02;98.30;98054.66;7357851;19;19922;-62
2023/03/31 06:25:20;;;;;;;;;;;;;;;13.04;98.33;98058.69;7361146;19;20010;-63
2023/03/31 06:27:47;;;;;;;;;;;;;;;13.02;97.73;98059.94;7364821;19;19994;-61
2023/03/31 06:30:14;;;;;;;;;;;;;;;13.02;97.71;98046.75;7363490;19;19923;-62
2023/03/31 06:32:41;;;;;;;;;;;;;;;13.00;97.75;98049.63;7361095;19;19952;-65
2023/03/31 06:35:08;;;;;;;;;;;;;;;13.03;98.07;98051.00;7363471;19;19926;-65
2023/03/31 06:37:35;;;;;;;;;;;;;;;13.05;98.41;98043.66;7363922;19;20257;-62
2023/03/31 06:40:03;;;;;;;;;;;;;;;13.05;97.57;98055.00;7364006;19;19925;-62
2023/03/31 06:42:30;;;;;;;;;;;;;;;13.07;96.82;98050.28;7364173;19;21560;-63
2023/03/31 06:44:57;;;;;;;;;;;;;;;13.08;96.80;98053.72;7363973;19;20415;-62
2023/03/31 06:47:24;;;;;;;;;;;;;;;13.10;96.92;98044.53;7357746;19;19937;-63
2023/03/31 06:49:51;;;;;;;;;;;;;;;13.14;97.34;98043.03;7364700;19;19939;-60
2023/03/31 06:52:18;;;;;;;;;;;;;;;13.16;97.25;98043.59;7360902;19;19987;-63
2023/03/31 06:54:45;;;;;;;;;;;;;;;13.18;97.33;98038.09;7359313;19;19922;-61
2023/03/31 06:57:12;;;;;;;;;;;;;;;13.21;97.42;98042.88;7363830;19;19939;-65
2023/03/31 06:59:39;;;;;;;;;;;;;;;13.22;96.65;98042.63;7362995;19;20255;-61
2023/03/31 07:02:06;;;;;;;;;;;;;;;13.23;96.28;98030.25;7360439;19;20297;-64
2023/03/31 07:04:33;;;;;;;;;;;;;;;13.22;96.41;98033.91;7363450;19;19923;-64
2023/03/31 07:07:00;;;;;;;;;;;;;;;13.26;96.62;98038.47;7364093;19;19964;-63
2023/03/31 07:09:27;;;;;;;;;;;;;;;13.26;95.15;98030.56;7362648;19;19926;-64
2023/03/31 07:11:54;;;;;;;;;;;;;;;13.27;95.31;98031.34;7362863;19;19975;-64
2023/03/31 07:14:22;;;;;;;;;;;;;;;13.33;95.59;98026.97;7364284;19;21334;-63
2023/03/31 07:16:49;;;;;;;;;;;;;;;13.33;95.38;98024.31;7354902;19;21225;-63
2023/03/31 07:19:16;;;;;;;;;;;;;;;13.38;95.55;98025.22;7362882;19;19974;-63
2023/03/31 07:21:44;;;;;;;;;;;;;;;13.40;95.67;98028.41;7362148;19;19931;-61
2023/03/31 07:24:11;;;;;;;;;;;;;;;13.46;95.74;98029.31;7364157;19;19907;-63
2023/03/31 07:26:38;;;;;;;;;;;;;;;13.52;96.26;98031.75;7364979;19;19995;-63
2023/03/31 07:29:05;;;;;;;;;;;;;;;13.56;94.71;98021.53;7362808;19;20035;-63
2023/03/31 07:31:32;;;;;;;;;;;;;;;13.58;93.67;98024.72;7359918;19;19986;-62
2023/03/31 07:34:00;;;;;;;;;;;;;;;13.63;94.22;98030.88;7361181;19;19935;-62
2023/03/31 07:36:27;;;;;;;;;;;;;;;13.70;94.04;98028.06;7357915;19;19941;-63
2023/03/31 07:38:54;;;;;;;;;;;;;;;13.68;94.07;98025.66;7359485;19;19950;-61
2023/03/31 07:41:21;;;;;;;;;;;;;;;13.67;93.74;98025.91;7359582;19;19922;-62
2023/03/31 07:43:49;;;;;;;;;;;;;;;13.65;93.38;98014.78;7356944;19;19986;-62
2023/03/31 07:46:18;;;;;;;;;;;;;;;13.65;93.13;98017.44;7358231;19;19923;-62
2023/03/31 07:48:46;;;;;;;;;;;;;;;13.66;93.00;98019.03;7330252;19;19959;-62
2023/03/31 07:51:15;;;;;;;;;;;;;;;13.66;93.48;98021.69;7349695;19;19921;-62
2023/03/31 07:53:42;;;;;;;;;;;;;;;13.73;93.92;98013.56;7354598;19;19947;-63
2023/03/31 07:56:10;;;;;;;;;;;;;;;13.71;92.59;98011.97;7354881;19;20023;-64
2023/03/31 07:58:37;;;;;;;;;;;;;;;13.74;92.36;98017.81;7355806;19;19930;-64
2023/03/31 08:01:05;;;;;;;;;;;;;;;13.77;92.97;98025.25;7350770;19;20328;-61
2023/03/31 08:03:33;;;;;;;;;;;;;;;13.75;92.78;98014.94;7353971;19;19926;-62
2023/03/31 08:06:00;;;;;;;;;;;;;;;13.76;93.09;98021.81;7356131;19;20310;-64
2023/03/31 08:08:27;;;;;;;;;;;;;;;13.76;93.10;98013.09;7355528;19;19923;-64
2023/03/31 08:10:54;;;;;;;;;;;;;;;13.78;93.54;98017.09;7351565;19;19975;-63
2023/03/31 08:13:21;;;;;;;;;;;;;;;13.81;93.39;98013.16;7353016;19;19943;-64
2023/03/31 08:15:48;;;;;;;;;;;;;;;13.83;93.43;98013.72;7352676;19;19915;-64
2023/03/31 08:18:16;;;;;;;;;;;;;;;13.79;92.95;98004.66;7353099;19;21211;-63
2023/03/31 08:20:43;;;;;;;;;;;;;;;13.79;93.39;98016.03;7351409;19;19922;-64
2023/03/31 08:23:10;;;;;;;;;;;;;;;13.79;93.62;98008.13;7352445;19;19979;-63
2023/03/31 08:25:38;;;;;;;;;;;;;;;13.77;93.81;98010.19;7356058;19;21102;-63
2023/03/31 08:28:05;;;;;;;;;;;;;;;13.77;94.54;97991.69;7352171;19;20035;-62
2023/03/31 08:30:33;;;;;;;;;;;;;;;13.76;93.36;97994.59;7355304;19;19945;-63
2023/03/31 08:33:00;;;;;;;;;;;;;;;13.74;93.42;97996.66;7348945;19;20635;-63
2023/03/31 08:35:27;;;;;;;;;;;;;;;13.77;94.17;97996.19;7354767;19;19931;-61
2023/03/31 08:37:54;;;;;;;;;;;;;;;13.80;94.05;97996.50;7356416;19;20340;-62
2023/03/31 08:40:23;;;;;;;;;;;;;;;13.74;93.22;98000.13;7352588;19;19926;-63
2023/03/31 08:42:54;;;;;;;;;;;;;;;13.76;94.12;98000.69;7350756;19;19994;-64
2023/03/31 08:45:24;;;;;;;;;;;;;;;13.76;94.31;97992.75;7355338;19;20376;-64
2023/03/31 08:47:56;;;;;;;;;;;;;;;13.76;93.55;97992.75;7346285;19;19953;-64
2023/03/31 08:50:26;;;;;;;;;;;;;;;13.83;94.35;97993.38;7347938;19;20644;-61
2023/03/31 08:52:59;;;;;;;;;;;;;;;13.81;94.06;97990.19;7347015;19;21431;-64
2023/03/31 08:55:28;;;;;;;;;;;;;;;13.76;93.38;97986.66;7349101;19;20007;-62
2023/03/31 08:58:00;;;;;;;;;;;;;;;13.78;93.93;97985.38;7357464;19;19990;-63
2023/03/31 09:00:30;;;;;;;;;;;;;;;13.83;94.23;97988.09;7349498;19;19952;-63
2023/03/31 09:03:01;;;;;;;;;;;;;;;13.86;94.23;97982.31;7345662;19;19986;-63
2023/03/31 09:05:36;;;;;;;;;;;;;;;13.90;94.49;97988.72;7347280;19;19918;-63
2023/03/31 09:08:35;;;;;;;;;;;;;;;13.98;94.52;97979.53;7345374;19;19945;-61
2023/03/31 09:11:07;;;;;;;;;;;;;;;13.98;93.51;97979.53;7352113;19;20423;-60
2023/03/31 09:13:43;;;;;;;;;;;;;;;14.00;93.18;97977.47;7354188;19;19918;-62
2023/03/31 09:16:15;;;;;;;;;;;;;;;14.02;93.29;97975.38;7351475;19;19943;-63
2023/03/31 09:18:45;;;;;;;;;;;;;;;14.02;92.96;97975.38;7348263;19;19914;-60
2023/03/31 09:21:19;;;;;;;;;;;;;;;13.99;93.40;97971.38;7355201;19;20351;-63
2023/03/31 09:23:52;;;;;;;;;;;;;;;13.97;92.70;97972.66;7346369;19;20715;-61
2023/03/31 09:26:29;;;;;;;;;;;;;;;14.00;92.93;97961.59;7354749;19;19945;-62
2023/03/31 09:29:11;;;;;;;;;;;;;;;14.04;92.78;97963.50;7356688;19;20277;-60
2023/03/31 09:31:41;;;;;;;;;;;;;;;14.09;92.36;97962.78;7350185;19;20266;-63
2023/03/31 09:34:16;;;;;;;;;;;;;;;14.06;91.44;97964.06;7353151;19;19939;-62
2023/03/31 09:36:43;;;;;;;;;;;;;;;14.05;92.00;97956.38;7343891;19;20032;-61
2023/03/31 09:39:12;;;;;;;;;;;;;;;13.99;92.90;97950.22;7352360;19;19919;-60
2023/03/31 09:41:42;;;;;;;;;;;;;;;13.96;92.69;97940.16;7348940;19;19930;-63
2023/03/31 09:44:20;;;;;;;;;;;;;;;13.98;92.74;97945.19;7354258;19;20365;-61
2023/03/31 09:46:48;;;;;;;;;;;;;;;13.98;93.41;97947.81;7349866;19;20214;-64
2023/03/31 09:49:18;;;;;;;;;;;;;;;13.99;93.40;97947.59;7350747;19;19911;-62
2023/03/31 09:51:47;;;;;;;;;;;;;;;13.97;93.11;97951.50;7346888;19;20412;-63
2023/03/31 09:54:21;;;;;;;;;;;;;;;13.93;92.91;97940.63;7352073;19;20296;-63
2023/03/31 09:56:51;;;;;;;;;;;;;;;13.97;93.53;97936.44;7351362;19;19911;-62
2023/03/31 09:59:21;;;;;;;;;;;;;;;13.95;93.29;97943.84;7356824;19;20479;-57
2023/03/31 10:01:50;;;;;;;;;;;;;;;13.96;93.84;97948.09;7357414;19;20367;-63
2023/03/31 10:04:21;;;;;;;;;;;;;;;13.93;93.48;97945.13;7361404;19;19929;-65
2023/03/31 10:06:51;;;;;;;;;;;;;;;13.91;93.65;97955.97;7362602;19;19925;-61
2023/03/31 10:09:20;;;;;;;;;;;;;;;13.91;93.90;97949.88;7361820;19;20261;-61
2023/03/31 10:11:56;;;;;;;;;;;;;;;13.89;93.53;97946.66;7361849;19;20269;-58
2023/03/31 10:14:26;;;;;;;;;;;;;;;13.89;94.40;97952.75;7362043;19;19923;-60
2023/03/31 10:16:55;;;;;;;;;;;;;;;13.85;94.48;97942.91;7358561;19;19914;-61
2023/03/31 10:19:23;;;;;;;;;;;;;;;13.82;95.13;97954.75;7362324;19;20540;-61
2023/03/31 10:22:00;;;;;;;;;;;;;;;13.82;95.53;97946.03;7364223;19;19939;-63
2023/03/31 10:24:36;;;;;;;;;;;;;;;13.76;95.89;97944.38;7367680;19;19910;-61
2023/03/31 10:27:05;;;;;;;;;;;;;;;13.76;96.72;97945.19;7362664;19;20806;-63
2023/03/31 10:29:33;;;;;;;;;;;;;;;13.77;96.88;97951.25;7366620;19;19921;-63
2023/03/31 10:32:03;;;;;;;;;;;;;;;13.76;96.60;97960.25;7356939;19;20598;-63
2023/03/31 10:34:31;;;;;;;;;;;;;;;13.79;97.52;97949.97;7365360;19;21129;-61
2023/03/31 10:36:58;;;;;;;;;;;;;;;13.81;97.42;97950.53;7359743;19;19914;-62
2023/03/31 10:39:29;;;;;;;;;;;;;;;13.83;97.57;97951.06;7364801;19;20282;-66
2023/03/31 10:41:56;;;;;;;;;;;;;;;13.85;96.93;97964.06;7361152;19;20261;-64
2023/03/31 10:44:33;;;;;;;;;;;;;;;13.83;96.66;97969.59;7363530;19;20481;-63
2023/03/31 10:47:05;;;;;;;;;;;;;;;13.84;96.50;97971.19;7360449;19;20432;-63
2023/03/31 10:49:36;;;;;;;;;;;;;;;13.89;97.14;97981.03;7361544;19;19927;-64
2023/03/31 10:52:14;;;;;;;;;;;;;;;13.89;96.45;97970.44;7361014;19;20074;-64
2023/03/31 10:54:51;;;;;;;;;;;;;;;13.91;95.75;97973.66;7361174;19;19911;-64
2023/03/31 10:57:21;;;;;;;;;;;;;;;13.92;95.53;97973.38;7321465;19;19922;-64
2023/03/31 10:59:50;;;;;;;;;;;;;;;13.93;95.43;97975.00;7346781;19;21801;-65
2023/03/31 11:02:25;;;;;;;;;;;;;;;13.96;95.53;97986.94;7347520;19;20014;-62
2023/03/31 11:05:02;;;;;;;;;;;;;;;13.98;95.03;97984.84;7351002;19;19919;-66
2023/03/31 11:07:29;;;;;;;;;;;;;;;14.09;95.70;97999.78;7352091;19;19915;-61
2023/03/31 11:10:08;;;;;;;;;;;;;;;14.22;96.40;98001.28;7355502;19;19918;-64
2023/03/31 11:12:40;;;;;;;;;;;;;;;14.24;94.85;98007.09;7352052;19;19919;-64
2023/03/31 11:15:18;;;;;;;;;;;;;;;14.28;94.39;98006.38;7355860;19;20418;-61
2023/03/31 11:17:52;;;;;;;;;;;;;;;14.37;94.43;98012.06;7353724;19;20316;-62
2023/03/31 11:20:30;;;;;;;;;;;;;;;14.41;93.76;98019.25;7351953;19;19923;-61
2023/03/31 11:23:05;;;;;;;;;;;;;;;14.49;93.83;98018.00;7355039;19;19917;-62
2023/03/31 11:25:35;;;;;;;;;;;;;;;14.55;92.23;98031.06;7357586;19;19926;-61
2023/03/31 11:28:12;;;;;;;;;;;;;;;14.63;93.46;98032.47;7358290;19;19911;-59
2023/03/31 11:30:40;;;;;;;;;;;;;;;14.71;93.72;98039.16;7356446;19;20187;-62
2023/03/31 11:33:17;;;;;;;;;;;;;;;14.78;93.42;98035.25;7349546;19;19996;-59
2023/03/31 11:36:03;;;;;;;;;;;;;;;14.82;92.00;98032.94;7354621;19;19923;-62
2023/03/31 11:38:30;;;;;;;;;;;;;;;14.87;92.31;98040.94;7358449;19;19928;-62
2023/03/31 11:40:58;;;;;;;;;;;;;;;14.89;92.28;98044.91;7357598;19;19915;-61
2023/03/31 11:43:26;;;;;;;;;;;;;;;14.84;91.77;98057.31;7357632;19;20197;-61
2023/03/31 11:45:59;;;;;;;;;;;;;;;14.86;93.07;98057.88;7357328;19;19923;-62
2023/03/31 11:48:36;;;;;;;;;;;;;;;14.82;92.70;98065.50;7357865;19;20586;-61
2023/03/31 11:51:06;;;;;;;;;;;;;;;14.74;92.55;98073.88;7358325;19;20341;-64
2023/03/31 11:53:36;;;;;;;;;;;;;;;14.69;93.18;98071.16;7361744;19;19919;-64
2023/03/31 11:56:06;;;;;;;;;;;;;;;14.65;93.60;98083.31;7353899;19;19923;-64
2023/03/31 11:58:37;;;;;;;;;;;;;;;14.67;94.11;98081.22;7359202;19;19952;-62
2023/03/31 12:01:04;;;;;;;;;;;;;;;14.68;94.16;98092.63;7355172;19;20062;-63
2023/03/31 12:03:43;;;;;;;;;;;;;;;14.66;93.66;98092.03;7358190;19;20321;-62
2023/03/31 12:06:17;;;;;;;;;;;;;;;14.69;93.35;98108.22;7360610;19;19919;-62
2023/03/31 12:08:45;;;;;;;;;;;;;;;14.72;93.43;98110.41;7360159;19;20352;-64
2023/03/31 12:11:18;;;;;;;;;;;;;;;14.80;94.17;98114.44;7359899;19;19922;-63
2023/03/31 12:13:48;;;;;;;;;;;;;;;14.94;93.75;98115.66;7361362;19;19906;-62
2023/03/31 12:16:25;;;;;;;;;;;;;;;15.05;93.60;98124.53;7334701;19;19953;-62
2023/03/31 12:19:04;;;;;;;;;;;;;;;15.17;92.87;98127.84;7352348;19;20346;-61
2023/03/31 12:21:33;;;;;;;;;;;;;;;15.25;92.08;98133.47;7353985;19;19923;-61
2023/03/31 12:24:00;;;;;;;;;;;;;;;15.26;91.28;98137.72;7355879;19;19933;-60
2023/03/31 12:26:27;;;;;;;;;;;;;;;15.24;90.94;98146.97;7356065;19;19947;-62
2023/03/31 12:28:57;;;;;;;;;;;;;;;15.21;90.63;98150.94;7354818;19;20542;-60
2023/03/31 12:31:26;;;;;;;;;;;;;;;15.21;91.19;98152.78;7352684;19;21562;-59
2023/03/31 12:33:56;;;;;;;;;;;;;;;15.24;91.56;98149.63;7355067;19;20359;-61
2023/03/31 12:36:33;;;;;;;;;;;;;;;15.34;92.09;98155.03;7353811;19;19915;-60
2023/03/31 12:39:01;;;;;;;;;;;;;;;15.45;90.74;98155.91;7355899;19;19950;-62
2023/03/31 12:41:28;;;;;;;;;;;;;;;15.57;90.65;98154.75;7355263;19;19926;-62
2023/03/31 12:43:55;;;;;;;;;;;;;;;15.78;90.71;98153.91;7360372;19;19923;-61
2023/03/31 12:46:32;;;;;;;;;;;;;;;15.93;89.31;98166.47;7357170;19;19922;-63
2023/03/31 12:49:00;;;;;;;;;;;;;;;16.00;87.00;98153.78;7358591;19;19974;-60
2023/03/31 12:51:27;;;;;;;;;;;;;;;16.12;87.13;98167.69;7359084;19;20159;-62
2023/03/31 12:53:56;;;;;;;;;;;;;;;16.21;86.89;98165.34;7361056;19;19929;-62
2023/03/31 12:56:26;;;;;;;;;;;;;;;16.22;86.69;98174.91;7357249;19;21767;-61
2023/03/31 12:58:53;;;;;;;;;;;;;;;16.19;84.75;98175.44;7353181;19;20891;-60